createdAt,value
2019-03-10T00:01:12.396Z,4.97
2019-03-10T00:03:44.196Z,2.12
2019-03-10T00:06:15.831Z,1.87
2019-03-10T00:08:47.226Z,2.08
2019-03-10T00:11:18.845Z,1.92
2019-03-10T00:13:50.567Z,1.30
2019-03-10T00:16:22.442Z,3.40
2019-03-10T00:18:54.317Z,1.37
2019-03-10T00:21:25.984Z,1.20
2019-03-10T00:23:57.342Z,1.12
2019-03-10T00:26:29.322Z,1.62
2019-03-10T00:29:01.562Z,2.80
2019-03-10T00:31:33.221Z,2.12
2019-03-10T00:34:05.176Z,1.90
2019-03-10T00:36:37.908Z,1.07
2019-03-10T00:39:38.861Z,2.15
2019-03-10T00:42:49.542Z,2.40
2019-03-10T00:46:08.846Z,3.42
2019-03-10T00:49:18.188Z,3.50
2019-03-10T00:52:04.405Z,2.33
2019-03-10T00:54:35.990Z,1.75
2019-03-10T00:57:07.664Z,4.15
2019-03-10T00:59:39.595Z,1.60
2019-03-10T01:02:11.112Z,3.05
2019-03-10T01:04:42.822Z,3.98
2019-03-10T01:07:14.502Z,2.95
2019-03-10T01:09:46.332Z,3.85
2019-03-10T01:12:17.957Z,6.42
2019-03-10T01:14:49.802Z,3.77
2019-03-10T01:17:22.475Z,4.05
2019-03-10T01:19:54.224Z,5.08
2019-03-10T01:22:26.227Z,2.67
2019-03-10T01:24:57.981Z,2.52
2019-03-10T01:27:29.756Z,5.10
2019-03-10T01:30:01.464Z,2.70
2019-03-10T01:33:12.401Z,1.10
2019-03-10T01:35:44.278Z,1.67
2019-03-10T01:38:16.293Z,4.30
2019-03-10T01:40:48.375Z,5.47
2019-03-10T01:43:19.787Z,1.12
2019-03-10T01:45:51.425Z,4.10
2019-03-10T01:48:23.052Z,2.15
2019-03-10T01:50:54.964Z,4.65
2019-03-10T01:53:26.544Z,4.50
2019-03-10T01:55:58.616Z,1.32
2019-03-10T01:58:30.351Z,1.92
2019-03-10T02:01:02.079Z,3.22
2019-03-10T02:03:33.808Z,3.20
2019-03-10T02:06:05.754Z,3.70
2019-03-10T02:08:37.281Z,1.80
2019-03-10T02:11:08.951Z,4.33
2019-03-10T02:13:40.933Z,5.45
2019-03-10T02:16:12.549Z,5.87
2019-03-10T02:18:43.956Z,3.08
2019-03-10T02:21:15.469Z,1.77
2019-03-10T02:23:47.364Z,3.60
2019-03-10T02:26:18.992Z,8.98
2019-03-10T02:28:50.723Z,5.22
2019-03-10T02:31:22.260Z,8.00
2019-03-10T02:33:53.788Z,7.28
2019-03-10T02:36:25.157Z,6.12
2019-03-10T02:38:56.725Z,5.12
2019-03-10T02:41:28.204Z,8.98
2019-03-10T02:43:59.862Z,5.33
2019-03-10T02:46:31.644Z,5.35
2019-03-10T02:49:03.252Z,3.72
2019-03-10T02:51:34.820Z,7.55
2019-03-10T02:54:07.810Z,4.85
2019-03-10T02:56:39.474Z,5.83
2019-03-10T02:59:11.334Z,8.45
2019-03-10T03:01:42.887Z,2.22
2019-03-10T03:04:14.777Z,6.55
2019-03-10T03:06:46.438Z,7.83
2019-03-10T03:09:17.971Z,5.58
2019-03-10T03:11:49.448Z,6.25
2019-03-10T03:14:21.233Z,2.17
2019-03-10T03:16:53.034Z,3.67
2019-03-10T03:19:24.619Z,6.72
2019-03-10T03:21:56.566Z,2.98
2019-03-10T03:24:30.317Z,3.98
2019-03-10T03:27:02.675Z,3.85
2019-03-10T03:29:34.505Z,3.87
2019-03-10T03:32:06.256Z,3.70
2019-03-10T03:34:37.915Z,2.08
2019-03-10T03:37:12.211Z,8.15
2019-03-10T03:39:49.864Z,3.95
2019-03-10T03:42:21.267Z,3.83
2019-03-10T03:44:53.145Z,2.25
2019-03-10T03:47:24.617Z,4.05
2019-03-10T03:49:55.974Z,4.08
2019-03-10T03:52:27.469Z,2.10
2019-03-10T03:54:59.357Z,3.62
2019-03-10T03:57:31.168Z,5.72
2019-03-10T04:00:02.772Z,6.15
2019-03-10T04:02:38.811Z,1.67
2019-03-10T04:05:10.523Z,1.75
2019-03-10T04:07:41.934Z,5.08
2019-03-10T04:10:15.491Z,4.10
2019-03-10T04:12:47.166Z,2.47
2019-03-10T04:15:18.824Z,4.03
2019-03-10T04:17:50.510Z,4.08
2019-03-10T04:20:22.035Z,5.20
2019-03-10T04:22:53.739Z,4.70
2019-03-10T04:25:25.567Z,5.62
2019-03-10T04:27:57.142Z,2.17
2019-03-10T04:30:28.877Z,1.17
2019-03-10T04:33:00.346Z,2.72
2019-03-10T04:35:32.010Z,2.02
2019-03-10T04:38:03.686Z,6.17
2019-03-10T04:40:35.170Z,2.98
2019-03-10T04:43:06.577Z,7.65
2019-03-10T04:45:38.208Z,8.03
2019-03-10T04:48:09.766Z,3.70
2019-03-10T04:50:41.295Z,1.55
2019-03-10T04:53:13.030Z,2.37
2019-03-10T04:55:46.149Z,2.17
2019-03-10T04:58:18.196Z,2.70
2019-03-10T05:00:51.536Z,3.52
2019-03-10T05:03:23.563Z,1.82
2019-03-10T05:05:55.111Z,1.50
2019-03-10T05:08:26.848Z,2.65
2019-03-10T05:10:58.173Z,4.28
2019-03-10T05:13:29.682Z,4.72
2019-03-10T05:16:01.674Z,3.37
2019-03-10T05:18:33.226Z,3.00
2019-03-10T05:21:04.984Z,5.35
2019-03-10T05:23:41.185Z,3.55
2019-03-10T05:26:13.345Z,2.67
2019-03-10T05:28:48.377Z,2.65
2019-03-10T05:31:19.741Z,2.52
2019-03-10T05:33:51.581Z,7.00
2019-03-10T05:36:22.927Z,2.15
2019-03-10T05:38:54.242Z,4.83
2019-03-10T05:41:26.053Z,2.85
2019-03-10T05:43:58.858Z,3.98
2019-03-10T05:46:31.456Z,3.47
2019-03-10T05:49:03.173Z,1.70
2019-03-10T05:51:34.724Z,2.58
2019-03-10T05:54:06.352Z,3.58
2019-03-10T05:56:37.991Z,5.97
2019-03-10T05:59:09.835Z,3.58
2019-03-10T06:01:42.123Z,5.12
2019-03-10T06:04:13.416Z,3.08
2019-03-10T06:06:45.030Z,5.78
2019-03-10T06:09:16.619Z,4.80
2019-03-10T06:11:47.980Z,4.28
2019-03-10T06:14:19.679Z,6.10
2019-03-10T06:16:51.345Z,2.27
2019-03-10T06:19:22.771Z,2.67
2019-03-10T06:21:54.317Z,4.45
2019-03-10T06:24:26.016Z,5.95
2019-03-10T06:26:57.525Z,1.72
2019-03-10T06:29:29.087Z,2.75
2019-03-10T06:32:00.587Z,4.20
2019-03-10T06:34:32.337Z,4.90
2019-03-10T06:37:04.040Z,4.22
2019-03-10T06:39:35.721Z,3.33
2019-03-10T06:42:07.320Z,2.90
2019-03-10T06:44:38.746Z,2.35
2019-03-10T06:47:10.334Z,3.15
2019-03-10T06:49:41.708Z,2.58
2019-03-10T06:52:13.423Z,6.58
2019-03-10T06:54:44.918Z,4.72
2019-03-10T06:57:16.482Z,8.33
2019-03-10T06:59:50.017Z,4.67
2019-03-10T07:02:21.293Z,10.65
2019-03-10T07:04:53.045Z,5.05
2019-03-10T07:07:24.398Z,8.30
2019-03-10T07:09:55.872Z,4.62
2019-03-10T07:12:27.713Z,4.12
2019-03-10T07:14:59.468Z,4.17
2019-03-10T07:17:31.219Z,5.72
2019-03-10T07:20:02.726Z,3.85
2019-03-10T07:22:34.356Z,4.17
2019-03-10T07:25:06.491Z,5.20
2019-03-10T07:27:56.242Z,5.95
2019-03-10T07:30:32.317Z,4.75
2019-03-10T07:33:05.338Z,3.77
2019-03-10T07:35:53.796Z,3.17
2019-03-10T07:38:29.870Z,4.87
2019-03-10T07:41:06.172Z,2.87
2019-03-10T07:43:57.265Z,2.80
2019-03-10T07:46:45.826Z,4.33
2019-03-10T07:49:24.997Z,4.10
2019-03-10T07:51:58.415Z,6.72
2019-03-10T07:54:34.210Z,6.20
2019-03-10T07:57:13.783Z,4.42
2019-03-10T08:00:01.987Z,5.67
2019-03-10T08:02:39.761Z,1.40
2019-03-10T08:05:31.466Z,4.03
2019-03-10T08:08:10.978Z,4.92
2019-03-10T08:10:55.697Z,5.65
2019-03-10T08:13:43.634Z,3.95
2019-03-10T08:16:21.015Z,3.10
2019-03-10T08:21:25.929Z,13.10
2019-03-10T08:23:59.123Z,3.72
2019-03-10T08:26:38.706Z,5.83
2019-03-10T08:29:11.937Z,5.95
2019-03-10T08:32:01.215Z,3.67
2019-03-10T08:34:44.137Z,3.50
2019-03-10T08:37:36.654Z,8.83
2019-03-10T08:40:26.109Z,9.03
2019-03-10T08:42:59.789Z,4.33
2019-03-10T08:45:32.828Z,5.50
2019-03-10T08:48:24.232Z,3.08
2019-03-10T08:51:00.431Z,5.45
2019-03-10T08:53:46.080Z,7.92
2019-03-10T08:56:19.201Z,5.15
2019-03-10T08:58:52.223Z,5.03
2019-03-10T09:01:37.676Z,2.92
2019-03-10T09:04:16.653Z,7.00
2019-03-10T09:07:08.172Z,3.27
2019-03-10T09:09:41.704Z,4.90
2019-03-10T09:12:14.755Z,4.58
2019-03-10T09:14:56.769Z,4.62
2019-03-10T09:17:41.819Z,5.33
2019-03-10T09:20:15.469Z,5.40
2019-03-10T09:22:48.814Z,3.25
2019-03-10T09:25:37.295Z,6.72
2019-03-10T09:28:20.820Z,6.28
2019-03-10T09:30:53.883Z,4.58
2019-03-10T09:33:39.391Z,5.33
2019-03-10T09:36:12.420Z,7.67
2019-03-10T09:38:54.411Z,9.88
2019-03-10T09:41:30.821Z,4.75
2019-03-10T09:44:04.260Z,8.30
2019-03-10T09:46:43.661Z,7.70
2019-03-10T09:49:33.587Z,7.78
2019-03-10T09:52:09.505Z,4.62
2019-03-10T09:54:42.526Z,2.08
2019-03-10T09:57:21.499Z,3.98
2019-03-10T10:00:03.453Z,3.15
2019-03-10T10:02:56.224Z,3.42
2019-03-10T10:05:32.536Z,3.85
2019-03-10T10:08:22.558Z,5.28
2019-03-10T10:10:58.755Z,3.98
2019-03-10T10:13:34.282Z,5.78
2019-03-10T10:16:07.418Z,4.25
2019-03-10T10:18:43.703Z,6.55
2019-03-10T10:21:17.082Z,5.67
2019-03-10T10:23:50.102Z,2.40
2019-03-10T10:26:23.547Z,7.28
2019-03-10T10:28:56.838Z,2.67
2019-03-10T10:31:36.893Z,3.40
2019-03-10T10:34:16.435Z,10.00
2019-03-10T10:36:55.686Z,4.58
2019-03-10T10:39:45.626Z,5.67
2019-03-10T10:42:21.903Z,4.15
2019-03-10T10:45:01.008Z,8.13
2019-03-10T10:47:43.247Z,4.83
2019-03-10T10:50:19.955Z,3.92
2019-03-10T10:52:53.352Z,4.95
2019-03-10T10:55:42.644Z,6.75
2019-03-10T10:58:32.310Z,3.55
2019-03-10T11:01:06.003Z,4.10
2019-03-10T11:03:57.263Z,8.95
2019-03-10T11:06:30.289Z,7.72
2019-03-10T11:09:03.373Z,7.15
2019-03-10T11:11:42.098Z,3.80
2019-03-10T11:14:21.994Z,5.45
2019-03-10T11:16:55.100Z,4.12
2019-03-10T11:19:34.701Z,6.30
2019-03-10T11:22:11.202Z,4.03
2019-03-10T11:24:47.579Z,5.40
2019-03-10T11:27:32.743Z,6.12
2019-03-10T11:30:19.047Z,3.98
2019-03-10T11:33:10.882Z,7.17
2019-03-10T11:35:49.714Z,1.45
2019-03-10T11:38:39.212Z,4.45
2019-03-10T11:41:13.641Z,8.15
2019-03-10T11:44:01.814Z,4.55
2019-03-10T11:46:35.456Z,5.15
2019-03-10T11:49:21.028Z,8.00
2019-03-10T11:51:57.765Z,3.65
2019-03-10T11:54:47.465Z,2.47
2019-03-10T11:57:23.570Z,5.30
2019-03-10T12:00:03.092Z,6.45
2019-03-10T12:02:43.559Z,4.80
2019-03-10T12:05:26.188Z,3.65
2019-03-10T12:08:02.334Z,6.85
2019-03-10T12:10:34.154Z,4.95
2019-03-10T12:13:05.651Z,2.72
2019-03-10T12:15:37.441Z,2.70
2019-03-10T12:18:09.367Z,3.70
2019-03-10T12:20:41.084Z,6.00
2019-03-10T12:23:12.797Z,4.70
2019-03-10T12:25:44.827Z,2.55
2019-03-10T12:28:16.495Z,4.67
2019-03-10T12:30:48.194Z,3.27
2019-03-10T12:33:19.649Z,3.27
2019-03-10T12:35:51.173Z,2.87
2019-03-10T12:38:22.929Z,2.72
2019-03-10T12:40:54.407Z,1.87
2019-03-10T12:43:25.950Z,4.53
2019-03-10T12:45:57.641Z,3.25
2019-03-10T12:48:29.333Z,6.90
2019-03-10T12:51:00.804Z,3.45
2019-03-10T12:53:34.606Z,5.62
2019-03-10T12:56:06.736Z,5.00
2019-03-10T12:58:38.221Z,3.75
2019-03-10T13:01:10.175Z,3.52
2019-03-10T13:03:41.832Z,5.65
2019-03-10T13:06:13.356Z,5.90
2019-03-10T13:08:45.059Z,3.50
2019-03-10T13:11:16.341Z,4.50
2019-03-10T13:13:47.895Z,3.95
2019-03-10T13:16:21.264Z,2.72
2019-03-10T13:18:53.048Z,5.58
2019-03-10T13:21:26.147Z,10.88
2019-03-10T13:23:58.040Z,5.97
2019-03-10T13:26:29.709Z,3.75
2019-03-10T13:29:01.252Z,6.95
2019-03-10T13:31:33.325Z,7.00
2019-03-10T13:34:05.005Z,3.92
2019-03-10T13:36:36.698Z,5.55
2019-03-10T13:39:08.843Z,6.22
2019-03-10T13:41:41.693Z,4.03
2019-03-10T13:44:13.585Z,7.75
2019-03-10T13:46:45.119Z,8.30
2019-03-10T13:49:17.827Z,4.08
2019-03-10T13:51:49.559Z,4.47
2019-03-10T13:54:21.153Z,5.10
2019-03-10T13:56:52.520Z,3.90
2019-03-10T13:59:24.002Z,6.12
2019-03-10T14:01:55.697Z,7.50
2019-03-10T14:04:27.483Z,8.00
2019-03-10T14:06:59.142Z,7.87
2019-03-10T14:09:30.839Z,6.05
2019-03-10T14:12:03.451Z,7.97
2019-03-10T14:14:34.837Z,8.73
2019-03-10T14:17:06.620Z,2.87
2019-03-10T14:19:38.071Z,6.53
2019-03-10T14:22:09.955Z,6.80
2019-03-10T14:24:41.692Z,6.15
2019-03-10T14:27:13.082Z,4.08
2019-03-10T14:29:45.285Z,5.60
2019-03-10T14:32:17.027Z,5.50
2019-03-10T14:34:48.747Z,6.33
2019-03-10T14:37:20.709Z,3.87
2019-03-10T14:39:52.484Z,5.97
2019-03-10T14:42:24.029Z,4.40
2019-03-10T14:44:55.882Z,4.97
2019-03-10T14:47:27.683Z,5.40
2019-03-10T14:49:59.582Z,6.33
2019-03-10T14:52:31.995Z,7.08
2019-03-10T14:55:03.929Z,6.33
2019-03-10T14:57:35.744Z,4.87
2019-03-10T15:00:09.717Z,5.55
2019-03-10T15:02:41.713Z,6.25
2019-03-10T15:05:13.234Z,7.33
2019-03-10T15:07:44.785Z,9.33
2019-03-10T15:10:17.161Z,6.72
2019-03-10T15:12:48.713Z,7.03
2019-03-10T15:15:22.683Z,7.80
2019-03-10T15:17:53.871Z,7.80
2019-03-10T15:20:26.523Z,6.90
2019-03-10T15:22:58.656Z,16.20
2019-03-10T15:25:30.190Z,20.75
2019-03-10T15:28:02.824Z,27.77
2019-03-10T15:30:34.634Z,13.48
2019-03-10T15:33:06.077Z,6.15
2019-03-10T15:35:37.890Z,8.38
2019-03-10T15:38:11.322Z,3.33
2019-03-10T15:40:43.027Z,4.85
2019-03-10T15:43:14.496Z,3.45
2019-03-10T15:45:45.915Z,5.22
2019-03-10T15:48:17.354Z,5.55
2019-03-10T15:50:48.742Z,6.90
2019-03-10T15:53:20.467Z,7.15
2019-03-10T15:55:51.889Z,8.35
2019-03-10T15:58:23.666Z,9.00
2019-03-10T16:00:55.544Z,19.20
2019-03-10T16:03:27.147Z,8.65
2019-03-10T16:05:58.935Z,5.42
2019-03-10T16:08:30.704Z,9.90
2019-03-10T16:11:02.503Z,13.98
2019-03-10T16:13:34.272Z,13.53
2019-03-10T16:16:07.026Z,13.72
2019-03-10T16:18:38.801Z,13.15
2019-03-10T16:21:10.979Z,21.60
2019-03-10T16:23:42.693Z,21.30
2019-03-10T16:26:15.085Z,29.92
2019-03-10T16:28:46.711Z,18.57
2019-03-10T16:31:18.383Z,17.80
2019-03-10T16:33:50.251Z,37.33
2019-03-10T16:36:21.910Z,11.00
2019-03-10T16:38:53.641Z,9.83
2019-03-10T16:41:25.376Z,10.20
2019-03-10T16:43:57.041Z,14.13
2019-03-10T16:46:29.507Z,15.68
2019-03-10T16:49:01.338Z,14.70
2019-03-10T16:51:32.878Z,16.40
2019-03-10T16:54:05.101Z,14.70
2019-03-10T16:56:36.568Z,17.32
2019-03-10T16:59:08.238Z,13.35
2019-03-10T17:01:39.969Z,9.28
2019-03-10T17:04:11.530Z,14.85
2019-03-10T17:06:43.292Z,11.48
2019-03-10T17:09:21.033Z,9.88
2019-03-10T17:11:53.102Z,18.77
2019-03-10T17:14:24.557Z,12.43
2019-03-10T17:16:56.357Z,9.53
2019-03-10T17:19:28.034Z,9.63
2019-03-10T17:21:59.813Z,8.33
2019-03-10T17:24:31.180Z,14.53
2019-03-10T17:27:04.825Z,14.25
2019-03-10T17:29:36.265Z,12.35
2019-03-10T17:32:08.291Z,7.83
2019-03-10T17:34:41.077Z,7.58
2019-03-10T17:37:12.639Z,12.88
2019-03-10T17:39:44.521Z,10.13
2019-03-10T17:42:16.340Z,13.13
2019-03-10T17:44:47.992Z,9.20
2019-03-10T17:47:19.729Z,10.70
2019-03-10T17:49:51.212Z,8.23
2019-03-10T17:52:22.719Z,9.98
2019-03-10T17:54:54.681Z,21.85
2019-03-10T17:57:28.016Z,18.65
2019-03-10T17:59:59.849Z,13.10
2019-03-10T18:02:31.607Z,15.83
2019-03-10T18:05:03.189Z,11.63
2019-03-10T18:07:34.824Z,8.40
2019-03-10T18:10:07.157Z,11.97
2019-03-10T18:12:39.189Z,13.15
2019-03-10T18:15:11.500Z,13.05
2019-03-10T18:17:43.377Z,12.95
2019-03-10T18:20:15.379Z,16.95
2019-03-10T18:22:47.112Z,10.80
2019-03-10T18:25:20.116Z,12.82
2019-03-10T18:27:51.883Z,25.75
2019-03-10T18:30:23.721Z,14.58
2019-03-10T18:32:55.492Z,13.60
2019-03-10T18:35:26.981Z,17.17
2019-03-10T18:37:58.596Z,12.55
2019-03-10T18:40:30.576Z,16.25
2019-03-10T18:43:02.135Z,18.45
2019-03-10T18:45:33.802Z,12.33
2019-03-10T18:48:05.996Z,16.02
2019-03-10T18:50:38.820Z,15.20
2019-03-10T18:53:11.595Z,14.73
2019-03-10T18:55:43.583Z,11.63
2019-03-10T18:58:16.223Z,15.60
2019-03-10T19:00:48.223Z,28.95
2019-03-10T19:03:21.359Z,14.45
2019-03-10T19:05:52.970Z,29.50
2019-03-10T19:08:24.679Z,10.05
2019-03-10T19:10:56.329Z,8.08
2019-03-10T19:13:27.982Z,11.78
2019-03-10T19:16:00.403Z,10.72
2019-03-10T19:18:31.975Z,17.87
2019-03-10T19:21:03.680Z,16.70
2019-03-10T19:23:35.257Z,13.48
2019-03-10T19:26:07.282Z,10.80
2019-03-10T19:28:39.425Z,16.10
2019-03-10T19:31:11.148Z,18.42
2019-03-10T19:33:42.807Z,14.58
2019-03-10T19:36:14.457Z,14.25
2019-03-10T19:38:45.931Z,10.53
2019-03-10T19:41:17.716Z,9.15
2019-03-10T19:43:49.453Z,9.58
2019-03-10T19:46:21.009Z,7.33
2019-03-10T19:48:52.624Z,8.05
2019-03-10T19:51:24.299Z,5.60
2019-03-10T19:53:55.945Z,4.72
2019-03-10T19:56:27.905Z,4.90
2019-03-10T19:58:59.374Z,4.60
2019-03-10T20:01:30.892Z,3.77
2019-03-10T20:04:02.484Z,6.83
2019-03-10T20:06:34.268Z,6.78
2019-03-10T20:09:07.817Z,3.40
2019-03-10T20:11:39.649Z,9.93
2019-03-10T20:14:11.135Z,4.10
2019-03-10T20:16:42.770Z,7.97
2019-03-10T20:19:14.354Z,11.25
2019-03-10T20:21:46.214Z,10.93
2019-03-10T20:24:17.938Z,18.95
2019-03-10T20:26:49.852Z,23.40
2019-03-10T20:29:21.403Z,15.13
2019-03-10T20:31:53.015Z,34.75
2019-03-10T20:34:24.785Z,20.97
2019-03-10T20:36:56.303Z,13.35
2019-03-10T20:39:27.968Z,24.55
2019-03-10T20:42:04.993Z,43.68
2019-03-10T20:44:33.306Z,20.35
2019-03-10T20:47:05.296Z,10.65
2019-03-10T20:49:36.895Z,2.80
2019-03-10T20:52:08.541Z,7.58
2019-03-10T20:54:39.988Z,4.75
2019-03-10T20:57:11.529Z,6.67
2019-03-10T20:59:43.128Z,6.17
2019-03-10T21:02:15.025Z,6.60
2019-03-10T21:04:46.346Z,6.45
2019-03-10T21:07:18.043Z,6.08
2019-03-10T21:09:49.787Z,6.10
2019-03-10T21:12:21.810Z,7.62
2019-03-10T21:14:54.020Z,5.40
2019-03-10T21:17:25.770Z,8.43
2019-03-10T21:19:57.350Z,6.55
2019-03-10T21:22:29.384Z,10.15
2019-03-10T21:25:01.106Z,6.20
2019-03-10T21:27:32.983Z,6.35
2019-03-10T21:30:05.387Z,5.37
2019-03-10T21:32:37.096Z,3.35
2019-03-10T21:35:17.104Z,4.40
2019-03-10T21:37:42.763Z,6.62
2019-03-10T21:40:15.967Z,5.90
2019-03-10T21:42:47.639Z,3.87
2019-03-10T21:45:19.679Z,7.75
2019-03-10T21:47:52.428Z,5.67
2019-03-10T21:50:24.227Z,5.50
2019-03-10T21:52:56.159Z,9.10
2019-03-10T21:55:28.052Z,7.42
2019-03-10T21:57:59.644Z,12.50
2019-03-10T22:00:31.370Z,11.45
2019-03-10T22:03:03.285Z,7.53
2019-03-10T22:05:35.088Z,8.45
2019-03-10T22:08:06.728Z,7.03
2019-03-10T22:10:39.854Z,3.90
2019-03-10T22:13:11.976Z,6.05
